Time;durP1;ratioP1;P1;durP2;ratioP2;P2;SDS_P1;SDS_P2;PMS_P1;PMS_P2;Temp;Humidity;BMP_temperature;BMP_pressure;BME280_temperature;BME280_humidity;BME280_pressure;Samples;Min_cycle;Max_cycle;Signal;HPM_P1;HPM_P2
2023/12/16 00:01:40;;;;;;;7.40;2.75;;;8.20;99.90;;;8.16;100.00;103376.38;5160724;28;20222;-49
2023/12/16 00:04:13;;;;;;;6.53;2.38;;;8.20;99.90;;;8.16;100.00;103384.16;5168513;28;20145;-50
2023/12/16 00:06:45;;;;;;;6.85;2.70;;;8.20;99.90;;;8.16;100.00;103381.56;5161434;28;20067;-49
2023/12/16 00:09:19;;;;;;;6.30;2.58;;;8.20;99.90;;;8.16;100.00;103377.28;5158459;28;21456;-50
2023/12/16 00:11:53;;;;;;;5.65;2.15;;;8.20;99.90;;;8.16;100.00;103373.78;5146968;28;20043;-50
2023/12/16 00:14:25;;;;;;;3.83;2.17;;;8.20;99.90;;;8.16;100.00;103371.19;5170679;28;20054;-50
2023/12/16 00:16:57;;;;;;;4.32;2.17;;;8.20;99.90;;;8.16;100.00;103373.78;5161573;28;20056;-51
2023/12/16 00:19:30;;;;;;;4.35;2.13;;;8.20;99.90;;;8.16;100.00;103373.78;5181104;28;20497;-50
2023/12/16 00:22:03;;;;;;;3.72;1.77;;;8.20;99.90;;;8.16;100.00;103363.38;5147338;28;20461;-50
2023/12/16 00:24:37;;;;;;;3.13;1.83;;;8.20;99.90;;;8.16;100.00;103363.38;5169670;28;20053;-49
2023/12/16 00:27:09;;;;;;;3.47;1.98;;;8.20;99.90;;;8.14;100.00;103368.41;5174837;28;20049;-50
2023/12/16 00:29:41;;;;;;;2.50;1.95;;;8.20;99.90;;;8.15;100.00;103365.06;5162162;28;20050;-49
2023/12/16 00:32:14;;;;;;;4.88;1.98;;;8.20;99.90;;;8.16;100.00;103365.97;5160370;28;20553;-49
2023/12/16 00:34:46;;;;;;;4.45;1.98;;;8.20;99.90;;;8.16;100.00;103371.19;5161398;28;20053;-50
2023/12/16 00:37:18;;;;;;;4.43;2.05;;;8.20;99.90;;;8.16;100.00;103368.56;5162748;28;20065;-48
2023/12/16 00:39:52;;;;;;;2.97;1.52;;;8.20;99.90;;;8.17;100.00;103365.19;5162333;28;20050;-51
2023/12/16 00:42:24;;;;;;;2.90;1.73;;;8.20;99.90;;;8.17;100.00;103360.00;5160315;28;20058;-49
2023/12/16 00:44:57;;;;;;;2.85;1.52;;;8.20;99.90;;;8.18;100.00;103355.69;5161777;28;20060;-48
2023/12/16 00:47:30;;;;;;;3.60;1.75;;;8.20;99.90;;;8.19;100.00;103354.91;5181368;28;20064;-50
2023/12/16 00:50:02;;;;;;;4.28;1.90;;;8.30;99.90;;;8.17;100.00;103354.78;5159761;28;20049;-53
2023/12/16 00:52:38;;;;;;;3.67;1.73;;;8.20;99.90;;;8.18;100.00;103359.22;5169110;28;20046;-49
2023/12/16 00:55:11;;;;;;;5.18;2.00;;;8.20;99.90;;;8.18;100.00;103355.69;5175575;28;20050;-50
2023/12/16 00:57:44;;;;;;;4.15;1.83;;;8.20;99.90;;;8.17;100.00;103352.19;5178953;28;20046;-54
2023/12/16 01:00:20;;;;;;;3.58;1.65;;;8.20;99.90;;;8.16;100.00;103355.59;5160276;28;20061;-51
2023/12/16 01:02:52;;;;;;;4.03;2.20;;;8.20;99.90;;;8.15;100.00;103353.75;5177974;28;20145;-54
2023/12/16 01:05:24;;;;;;;2.45;1.45;;;8.20;99.90;;;8.16;100.00;103350.38;5180856;28;20062;-51
2023/12/16 01:07:57;;;;;;;1.88;1.38;;;8.20;99.90;;;8.16;100.00;103350.38;5177460;28;20050;-50
2023/12/16 01:10:34;;;;;;;3.10;1.48;;;8.20;99.90;;;8.15;100.00;103354.69;5187657;28;20052;-49
2023/12/16 01:13:06;;;;;;;2.90;1.52;;;8.20;99.90;;;8.15;100.00;103358.97;5160246;28;20057;-53
2023/12/16 01:15:39;;;;;;;3.25;1.65;;;8.20;99.90;;;8.14;100.00;103346.72;5160804;28;20442;-53
2023/12/16 01:18:12;;;;;;;4.85;1.52;;;8.20;99.90;;;8.14;100.00;103347.63;5157942;28;20049;-51
2023/12/16 01:20:44;;;;;;;4.00;2.00;;;8.20;99.90;;;8.15;100.00;103359.88;5159904;28;20048;-49
2023/12/16 01:23:16;;;;;;;2.13;1.73;;;8.20;99.90;;;8.14;100.00;103359.72;5159555;28;20069;-49
2023/12/16 01:25:50;;;;;;;3.47;1.50;;;8.20;99.90;;;8.13;100.00;103373.50;5175299;28;20053;-52
2023/12/16 01:28:22;;;;;;;2.05;1.55;;;8.20;99.90;;;8.13;100.00;103363.09;5181406;28;20054;-50
2023/12/16 01:30:56;;;;;;;3.28;2.03;;;8.20;99.90;;;8.11;100.00;103369.84;5177227;28;20058;-52
2023/12/16 01:33:28;;;;;;;2.67;1.52;;;8.20;99.90;;;8.10;100.00;103368.03;5185751;28;20064;-49
2023/12/16 01:36:00;;;;;;;2.58;1.63;;;8.20;99.90;;;8.10;100.00;103370.66;5160037;28;20056;-50
2023/12/16 01:38:33;;;;;;;2.90;1.60;;;8.20;99.90;;;8.09;100.00;103367.13;5160887;28;20394;-50
2023/12/16 01:41:07;;;;;;;4.25;1.60;;;8.20;99.90;;;8.08;100.00;103380.88;5159964;28;20525;-52
2023/12/16 01:43:39;;;;;;;3.17;1.50;;;8.20;99.90;;;8.08;100.00;103377.38;5154978;28;20053;-49
2023/12/16 01:46:12;;;;;;;2.40;1.58;;;8.10;99.90;;;8.07;100.00;103385.94;5159812;28;20062;-53
2023/12/16 01:48:47;;;;;;;3.05;1.48;;;8.10;99.90;;;8.07;100.00;103385.94;5176176;28;20046;-50
2023/12/16 01:51:20;;;;;;;3.13;1.70;;;8.10;99.90;;;8.08;100.00;103400.75;5159512;28;20046;-54
2023/12/16 01:53:52;;;;;;;3.70;1.42;;;8.10;99.90;;;8.07;100.00;103397.25;5176324;28;20053;-51
2023/12/16 01:56:28;;;;;;;3.15;1.70;;;8.10;99.90;;;8.08;100.00;103398.16;5176608;28;20108;-50
2023/12/16 01:59:01;;;;;;;3.80;1.80;;;8.10;99.90;;;8.06;100.00;103407.53;5158713;28;20092;-51
2023/12/16 02:01:33;;;;;;;4.35;1.80;;;8.10;99.90;;;8.06;100.00;103411.03;5178369;28;20527;-50
2023/12/16 02:04:06;;;;;;;2.45;1.42;;;8.10;99.90;;;8.07;100.00;103406.75;5160539;28;20058;-50
2023/12/16 02:06:39;;;;;;;2.53;1.33;;;8.10;99.90;;;8.07;100.00;103411.94;5164346;28;20049;-51
2023/12/16 02:09:14;;;;;;;4.47;1.52;;;8.10;99.90;;;8.06;100.00;103420.50;5163981;28;20153;-49
2023/12/16 02:11:48;;;;;;;4.03;1.98;;;8.10;99.90;;;8.05;100.00;103408.31;5164400;28;20050;-50
2023/12/16 02:14:20;;;;;;;3.90;1.75;;;8.10;99.90;;;8.02;100.00;103406.38;5162653;28;20056;-50
2023/12/16 02:16:52;;;;;;;2.75;1.33;;;8.10;99.90;;;8.03;100.00;103407.28;5180244;28;20064;-50
2023/12/16 02:19:27;;;;;;;2.75;1.20;;;8.10;99.90;;;8.03;100.00;103408.19;5184359;28;20413;-52
2023/12/16 02:22:00;;;;;;;4.47;1.73;;;8.10;99.90;;;8.03;100.00;103397.78;5179147;28;20045;-50
2023/12/16 02:24:36;;;;;;;3.15;1.33;;;8.10;99.90;;;8.05;100.00;103403.09;5163692;28;20192;-50
2023/12/16 02:27:09;;;;;;;1.65;1.13;;;8.10;99.90;;;8.04;100.00;103397.00;5178409;28;20041;-49
2023/12/16 02:29:41;;;;;;;2.45;1.25;;;8.10;99.90;;;8.03;100.00;103394.28;5178233;28;20046;-50
2023/12/16 02:32:15;;;;;;;3.33;1.45;;;8.10;99.90;;;8.03;100.00;103396.88;5178695;28;20420;-49
2023/12/16 02:34:48;;;;;;;2.35;1.23;;;8.10;99.90;;;8.03;100.00;103395.19;5164853;28;20149;-50
2023/12/16 02:37:20;;;;;;;3.42;1.67;;;8.10;99.90;;;8.02;100.00;103397.63;5164360;28;20465;-50
2023/12/16 02:39:54;;;;;;;2.50;1.42;;;8.10;99.90;;;8.03;100.00;103400.38;5182050;28;20034;-48
2023/12/16 02:42:27;;;;;;;3.13;1.60;;;8.10;99.90;;;8.04;100.00;103403.91;5183825;28;20053;-50
2023/12/16 02:44:59;;;;;;;6.07;1.58;;;8.10;99.90;;;8.05;100.00;103397.91;5164555;28;20046;-50
2023/12/16 02:47:32;;;;;;;4.05;1.60;;;8.10;99.90;;;8.05;100.00;103403.09;5162792;28;20053;-52
2023/12/16 02:50:07;;;;;;;3.00;1.65;;;8.10;99.90;;;8.04;100.00;103399.59;5162292;28;20409;-51
2023/12/16 02:52:39;;;;;;;3.78;1.65;;;8.10;99.90;;;8.03;100.00;103396.88;5163470;28;20448;-49
2023/12/16 02:55:13;;;;;;;4.28;1.63;;;8.10;99.90;;;8.03;100.00;103399.47;5179503;28;20054;-49
2023/12/16 02:57:46;;;;;;;3.33;1.73;;;8.10;99.90;;;8.01;100.00;103395.81;5175077;28;20485;-49
2023/12/16 03:00:18;;;;;;;3.80;1.63;;;8.10;99.90;;;8.00;100.00;103388.81;5162189;28;20050;-49
2023/12/16 03:02:51;;;;;;;4.75;1.70;;;8.10;99.90;;;8.01;100.00;103390.63;5162902;28;20056;-50
2023/12/16 03:05:23;;;;;;;2.58;1.38;;;8.10;99.90;;;8.02;100.00;103397.63;5160102;28;20057;-49
2023/12/16 03:07:55;;;;;;;2.95;1.50;;;8.00;99.90;;;8.02;100.00;103389.84;5178491;28;20050;-49
2023/12/16 03:10:29;;;;;;;2.58;1.88;;;8.10;99.90;;;8.02;100.00;103397.63;5164689;28;20054;-50
2023/12/16 03:13:02;;;;;;;3.78;1.52;;;8.10;99.90;;;8.01;100.00;103401.00;5164321;28;20058;-49
2023/12/16 03:15:34;;;;;;;2.05;1.42;;;8.00;99.90;;;8.00;100.00;103404.41;5163267;28;20046;-49
2023/12/16 03:18:06;;;;;;;2.97;1.40;;;8.10;99.90;;;8.00;100.00;103405.31;5179718;28;20053;-50
2023/12/16 03:20:42;;;;;;;5.20;1.55;;;8.10;99.90;;;8.01;100.00;103401.91;5163846;28;20048;-50
2023/12/16 03:23:14;;;;;;;2.97;1.40;;;8.10;99.90;;;8.03;100.00;103404.69;5162440;28;20076;-52
2023/12/16 03:25:48;;;;;;;3.58;1.38;;;8.10;99.90;;;8.01;100.00;103396.72;5163214;28;20050;-50
2023/12/16 03:28:20;;;;;;;2.70;1.10;;;8.10;99.90;;;8.00;100.00;103394.00;5178534;28;20397;-50
2023/12/16 03:30:53;;;;;;;2.67;1.30;;;8.10;99.90;;;8.00;100.00;103394.91;5180965;28;20056;-50
2023/12/16 03:33:25;;;;;;;2.13;1.17;;;8.10;99.90;;;8.00;100.00;103394.00;5183378;28;20417;-49
2023/12/16 03:35:57;;;;;;;2.45;1.50;;;8.10;99.90;;;7.99;100.00;103399.97;5181428;28;20049;-49
2023/12/16 03:38:31;;;;;;;3.40;1.92;;;8.10;99.90;;;8.00;100.00;103392.31;5162863;28;20082;-54
2023/12/16 03:41:05;;;;;;;3.03;1.63;;;8.10;99.90;;;8.00;100.00;103391.41;5161714;28;20045;-49
2023/12/16 03:43:38;;;;;;;4.40;1.52;;;8.10;99.90;;;7.99;100.00;103387.00;5161907;28;20727;-53
2023/12/16 03:46:10;;;;;;;3.13;1.65;;;8.00;99.90;;;7.99;100.00;103381.78;5180010;28;20050;-53
2023/12/16 03:48:43;;;;;;;3.35;1.63;;;8.10;99.90;;;8.00;100.00;103389.72;5162403;28;20416;-49
2023/12/16 03:51:15;;;;;;;3.42;1.50;;;8.00;99.90;;;8.01;100.00;103390.63;5175234;28;20060;-50
2023/12/16 03:53:47;;;;;;;4.53;2.05;;;8.00;99.90;;;8.01;100.00;103391.53;5176683;28;20513;-49
2023/12/16 03:56:21;;;;;;;4.35;1.88;;;8.10;99.90;;;8.01;100.00;103395.81;5176957;28;20125;-51
2023/12/16 03:58:54;;;;;;;3.70;1.80;;;8.10;99.90;;;8.00;100.00;103384.53;5180360;28;20520;-49
2023/12/16 04:01:26;;;;;;;3.13;1.42;;;8.10;99.90;;;8.01;100.00;103386.34;5163580;28;20057;-50
2023/12/16 04:03:59;;;;;;;5.97;1.70;;;8.10;99.90;;;8.02;100.00;103395.03;5178525;28;20046;-50
2023/12/16 04:06:31;;;;;;;4.90;1.63;;;8.10;99.90;;;8.02;100.00;103392.44;5182712;28;20054;-51
2023/12/16 04:09:04;;;;;;;3.58;1.52;;;8.10;99.90;;;8.01;100.00;103398.41;5158542;28;20057;-53
2023/12/16 04:11:46;;;;;;;1.63;1.42;;;8.10;99.90;;;8.01;100.00;103394.13;5161570;28;20061;-51
2023/12/16 04:14:18;;;;;;;2.67;1.50;;;8.10;99.90;;;8.02;100.00;103389.84;5178861;28;20050;-49
2023/12/16 04:16:51;;;;;;;4.28;1.80;;;8.10;99.90;;;8.01;100.00;103385.44;5158131;28;20065;-54
2023/12/16 04:19:23;;;;;;;5.13;1.75;;;8.10;99.90;;;8.01;100.00;103388.03;5178999;28;20061;-53
2023/12/16 04:21:56;;;;;;;5.25;2.40;;;8.10;99.90;;;8.02;100.00;103395.03;5179431;28;20963;-50
2023/12/16 04:24:28;;;;;;;2.47;1.63;;;8.10;99.90;;;8.02;100.00;103389.84;5177358;28;20256;-49
2023/12/16 04:27:02;;;;;;;6.80;2.35;;;8.10;99.90;;;8.02;100.00;103392.44;5179112;28;20042;-48
2023/12/16 04:29:34;;;;;;;5.72;1.92;;;8.10;99.90;;;8.00;100.00;103399.19;5177365;28;20505;-49
2023/12/16 04:32:07;;;;;;;6.38;1.98;;;8.10;99.90;;;8.01;100.00;103401.00;5178853;28;20052;-49
2023/12/16 04:34:39;;;;;;;4.15;2.10;;;8.10;99.90;;;8.01;100.00;103395.81;5161625;28;20045;-48
2023/12/16 04:37:12;;;;;;;4.72;1.98;;;8.10;99.90;;;8.02;100.00;103402.81;5178973;28;20057;-48
2023/12/16 04:39:44;;;;;;;4.85;2.42;;;8.10;99.90;;;8.02;100.00;103400.22;5161495;28;20044;-53
2023/12/16 04:42:18;;;;;;;3.90;2.08;;;8.10;99.90;;;8.03;100.00;103409.88;5178733;28;20069;-51
2023/12/16 04:44:54;;;;;;;5.15;2.30;;;8.10;99.90;;;8.04;100.00;103409.09;5162204;28;20050;-52
2023/12/16 04:47:26;;;;;;;4.50;2.40;;;8.10;99.90;;;8.04;100.00;103412.59;5179438;28;20054;-51
2023/12/16 04:49:58;;;;;;;6.45;2.42;;;8.10;99.90;;;8.06;100.00;103412.72;5178854;28;20052;-53
2023/12/16 04:52:31;;;;;;;7.93;2.35;;;8.10;99.90;;;8.06;100.00;103415.31;5180532;28;20046;-52
2023/12/16 04:55:04;;;;;;;6.43;2.63;;;8.10;99.90;;;8.05;100.00;103424.81;5159846;28;20049;-50
2023/12/16 04:57:38;;;;;;;4.03;2.08;;;8.10;99.90;;;8.05;100.00;103418.69;5161227;28;20056;-51
2023/12/16 05:00:12;;;;;;;3.70;1.92;;;8.10;99.90;;;8.07;100.00;103419.72;5160152;28;20528;-48
2023/12/16 05:02:44;;;;;;;3.70;2.20;;;8.20;99.90;;;8.08;100.00;103417.25;5162263;28;20057;-49
2023/12/16 05:05:17;;;;;;;7.25;2.17;;;8.20;99.90;;;8.10;100.00;103420.00;5160476;28;20061;-49
2023/12/16 05:07:49;;;;;;;7.78;2.22;;;8.20;99.90;;;8.11;100.00;103414.03;5178699;28;20042;-52
2023/12/16 05:10:21;;;;;;;6.03;2.00;;;8.10;99.90;;;8.11;100.00;103414.03;5179599;28;20053;-49
2023/12/16 05:12:55;;;;;;;7.07;1.88;;;8.20;99.90;;;8.12;100.00;103410.66;5161157;28;20050;-49
2023/12/16 05:15:28;;;;;;;7.10;2.35;;;8.20;99.90;;;8.10;100.00;103413.13;5161011;28;20061;-51
2023/12/16 05:18:00;;;;;;;5.95;2.03;;;8.20;99.90;;;8.08;100.00;103409.47;5178446;28;20050;-53
2023/12/16 05:20:32;;;;;;;4.20;2.00;;;8.20;99.90;;;8.06;100.00;103411.03;5174326;28;20057;-49
2023/12/16 05:23:08;;;;;;;6.18;1.98;;;8.20;99.90;;;8.07;100.00;103410.25;5159485;28;20038;-48
2023/12/16 05:25:41;;;;;;;4.60;2.33;;;8.20;99.90;;;8.08;100.00;103404.25;5162118;28;20046;-51
2023/12/16 05:28:15;;;;;;;5.38;2.05;;;8.20;99.90;;;8.09;100.00;103408.72;5161058;28;20129;-53
2023/12/16 05:30:48;;;;;;;5.43;2.10;;;8.20;99.90;;;8.10;100.00;103407.03;5160608;28;20042;-50
2023/12/16 05:33:20;;;;;;;8.20;2.03;;;8.20;99.90;;;8.09;100.00;103406.13;5160649;28;20069;-53
2023/12/16 05:35:52;;;;;;;6.45;2.25;;;8.20;99.90;;;8.11;100.00;103403.63;5160749;28;20068;-52
2023/12/16 05:38:25;;;;;;;4.72;1.88;;;8.20;99.90;;;8.09;100.00;103410.41;5161190;28;20053;-48
2023/12/16 05:40:57;;;;;;;7.55;2.08;;;8.20;99.90;;;8.08;100.00;103418.94;5160305;28;20038;-50
2023/12/16 05:43:31;;;;;;;8.13;2.38;;;8.20;99.90;;;8.08;100.00;103411.16;5182410;28;20410;-50
2023/12/16 05:46:04;;;;;;;6.75;2.47;;;8.20;99.90;;;8.08;100.00;103414.66;5163652;28;20053;-50
2023/12/16 05:48:36;;;;;;;7.03;2.00;;;8.20;99.90;;;8.09;100.00;103410.41;5165411;28;20064;-50
2023/12/16 05:51:09;;;;;;;5.82;1.95;;;8.20;99.90;;;8.09;100.00;103415.59;5181874;28;20127;-52
2023/12/16 05:53:41;;;;;;;7.72;2.42;;;8.20;99.90;;;8.08;100.00;103413.75;5163869;28;20076;-52
2023/12/16 05:56:14;;;;;;;5.38;1.98;;;8.20;99.90;;;8.09;100.00;103411.31;5164357;28;20509;-49
2023/12/16 05:58:48;;;;;;;7.47;2.13;;;8.20;99.90;;;8.09;100.00;103410.41;5165607;28;20056;-49
2023/12/16 06:01:20;;;;;;;8.43;2.28;;;8.20;99.90;;;8.09;100.00;103416.50;5164628;28;20544;-49
2023/12/16 06:03:53;;;;;;;3.70;1.88;;;8.20;99.90;;;8.10;100.00;103407.03;5163347;28;20418;-50
2023/12/16 06:06:25;;;;;;;4.28;2.00;;;8.20;99.90;;;8.09;100.00;103405.22;5185349;28;20057;-48
2023/12/16 06:09:01;;;;;;;6.57;2.00;;;8.20;99.90;;;8.09;100.00;103415.59;5163891;28;20053;-50
2023/12/16 06:11:33;;;;;;;4.25;2.05;;;8.20;99.90;;;8.08;100.00;103403.34;5182923;28;20061;-49
2023/12/16 06:14:07;;;;;;;7.22;2.17;;;8.20;99.90;;;8.12;100.00;103406.38;5158951;28;20053;-54
2023/12/16 06:16:39;;;;;;;4.90;1.95;;;8.20;99.90;;;8.12;100.00;103398.56;5160508;28;20559;-50
2023/12/16 06:19:12;;;;;;;4.35;1.95;;;8.20;99.90;;;8.10;100.00;103409.63;5165701;28;20054;-53
2023/12/16 06:21:44;;;;;;;3.92;1.63;;;8.20;99.90;;;8.08;100.00;103417.25;5163785;28;20516;-52
2023/12/16 06:24:17;;;;;;;3.30;1.55;;;8.20;99.90;;;8.08;100.00;103418.94;5182453;28;20057;-49
2023/12/16 06:26:49;;;;;;;6.50;1.75;;;8.20;99.90;;;8.09;100.00;103413.00;5163847;28;20049;-49
2023/12/16 06:29:23;;;;;;;7.93;1.50;;;8.20;99.90;;;8.09;100.00;103415.59;5182215;28;20412;-49
2023/12/16 06:31:55;;;;;;;6.32;1.73;;;8.20;99.90;;;8.10;100.00;103420.00;5164379;28;20064;-50
2023/12/16 06:34:27;;;;;;;8.77;2.30;;;8.20;99.90;;;8.12;100.00;103421.03;5181792;28;20057;-50
2023/12/16 06:37:00;;;;;;;4.28;1.60;;;8.20;99.90;;;8.10;100.00;103417.41;5179136;28;20045;-49
2023/12/16 06:39:32;;;;;;;6.75;1.80;;;8.20;99.90;;;8.10;100.00;103414.81;5187278;28;20038;-48
2023/12/16 06:42:05;;;;;;;4.45;1.60;;;8.20;99.90;;;8.10;100.00;103414.81;5180875;28;20182;-48
2023/12/16 06:44:39;;;;;;;4.20;1.77;;;8.20;99.90;;;8.14;100.00;103419.47;5164337;28;20073;-51
2023/12/16 06:47:11;;;;;;;5.18;1.60;;;8.20;99.90;;;8.12;100.00;103410.66;5163043;28;20100;-51
2023/12/16 06:49:44;;;;;;;3.80;1.70;;;8.20;99.90;;;8.10;100.00;103413.13;5162572;28;20042;-49
2023/12/16 06:52:16;;;;;;;4.55;1.52;;;8.20;99.90;;;8.10;100.00;103410.53;5161277;28;20054;-50
2023/12/16 06:54:48;;;;;;;6.53;2.20;;;8.20;99.90;;;8.11;100.00;103407.16;5164441;28;20119;-49
2023/12/16 06:57:21;;;;;;;4.18;1.88;;;8.20;99.90;;;8.11;100.00;103414.03;5180366;28;20053;-49
2023/12/16 06:59:54;;;;;;;7.10;1.90;;;8.20;99.90;;;8.10;100.00;103410.53;5164333;28;20046;-50
2023/12/16 07:02:27;;;;;;;5.22;1.92;;;8.20;99.90;;;8.11;100.00;103419.22;5183657;28;20053;-49
2023/12/16 07:04:59;;;;;;;4.45;1.67;;;8.20;99.90;;;8.10;100.00;103413.13;5162638;28;20049;-50
2023/12/16 07:07:31;;;;;;;3.63;1.42;;;8.20;99.90;;;8.13;100.00;103413.38;5163769;28;20058;-52
2023/12/16 07:10:06;;;;;;;6.57;1.70;;;8.20;99.90;;;8.14;100.00;103409.09;5159432;28;20046;-52
2023/12/16 07:12:38;;;;;;;4.78;2.10;;;8.20;99.90;;;8.14;100.00;103404.78;5163754;28;20053;-51
2023/12/16 07:15:13;;;;;;;5.88;1.95;;;8.20;99.90;;;8.15;100.00;103406.66;5180017;28;20053;-49
2023/12/16 07:17:45;;;;;;;3.20;1.75;;;8.20;99.90;;;8.14;100.00;103404.78;5164209;28;20046;-49
2023/12/16 07:20:17;;;;;;;3.40;1.58;;;8.20;99.90;;;8.14;100.00;103415.19;5181362;28;20050;-50
2023/12/16 07:22:50;;;;;;;4.78;1.60;;;8.20;99.90;;;8.16;100.00;103413.66;5162724;28;20137;-49
2023/12/16 07:25:22;;;;;;;5.68;1.95;;;8.20;99.90;;;8.17;100.00;103424.97;5179248;28;20420;-49
2023/12/16 07:27:54;;;;;;;3.72;1.48;;;8.20;99.90;;;8.18;100.00;103429.38;5161027;28;20042;-52
2023/12/16 07:30:28;;;;;;;2.75;1.50;;;8.20;99.90;;;8.18;100.00;103431.97;5183788;28;20068;-52
2023/12/16 07:33:04;;;;;;;4.32;1.60;;;8.30;99.90;;;8.20;100.00;103440.81;5160390;28;20053;-50
2023/12/16 07:35:38;;;;;;;3.65;1.90;;;8.30;99.90;;;8.20;100.00;103450.28;5176411;28;20112;-50
2023/12/16 07:38:10;;;;;;;2.58;1.30;;;8.30;99.90;;;8.21;100.00;103458.22;5162266;28;20115;-49
2023/12/16 07:40:43;;;;;;;2.17;1.40;;;8.30;99.90;;;8.22;100.00;103457.47;5161733;28;20461;-51
2023/12/16 07:43:15;;;;;;;2.75;1.55;;;8.30;99.90;;;8.21;100.00;103453.00;5157150;28;20046;-53
2023/12/16 07:45:49;;;;;;;1.83;1.30;;;8.30;99.90;;;8.23;100.00;103459.28;5162723;28;20058;-51
2023/12/16 07:48:21;;;;;;;3.67;1.63;;;8.30;99.90;;;8.24;100.00;103463.69;5179170;28;20057;-52
2023/12/16 07:50:54;;;;;;;6.60;1.70;;;8.30;99.90;;;8.25;100.00;103454.19;5161688;28;20046;-49
2023/12/16 07:53:26;;;;;;;5.75;1.73;;;8.30;99.90;;;8.25;100.00;103459.41;5182422;28;20046;-51
2023/12/16 07:55:58;;;;;;;3.40;1.38;;;8.30;99.90;;;8.25;100.00;103455.09;5161193;28;20513;-49
2023/12/16 07:58:31;;;;;;;5.75;2.03;;;8.30;99.90;;;8.27;100.00;103456.13;5180929;28;20321;-50
2023/12/16 08:01:05;;;;;;;6.07;2.08;;;8.30;99.90;;;8.27;100.00;103453.53;5156222;28;20524;-48
2023/12/16 08:03:38;;;;;;;5.53;1.70;;;8.30;99.90;;;8.27;100.00;103453.53;5174156;28;20145;-53
2023/12/16 08:06:10;;;;;;;7.00;2.38;;;8.30;99.90;;;8.28;100.00;103460.59;5162170;28;20038;-51
2023/12/16 08:08:43;;;;;;;5.43;1.90;;;8.30;99.90;;;8.31;100.00;103452.13;5158405;28;20133;-50
2023/12/16 08:11:15;;;;;;;7.28;1.83;;;8.40;99.90;;;8.32;100.00;103449.66;5159545;28;20052;-50
2023/12/16 08:13:48;;;;;;;5.40;1.95;;;8.30;99.90;;;8.32;100.00;103452.25;5159433;28;20057;-51
2023/12/16 08:16:21;;;;;;;8.23;2.35;;;8.40;99.90;;;8.34;100.00;103445.50;5161204;28;20046;-50
2023/12/16 08:18:54;;;;;;;5.15;1.83;;;8.40;99.90;;;8.37;100.00;103451.00;5162135;28;20057;-49
2023/12/16 08:21:26;;;;;;;4.53;1.52;;;8.40;99.90;;;8.37;100.00;103443.22;5183928;28;20202;-51
2023/12/16 08:23:59;;;;;;;6.55;1.73;;;8.50;99.90;;;8.40;100.00;103451.25;5159769;28;20116;-55
2023/12/16 08:26:31;;;;;;;5.70;1.75;;;8.40;99.90;;;8.43;100.00;103453.22;5178352;28;20421;-53
2023/12/16 08:29:03;;;;;;;6.22;2.03;;;8.50;99.90;;;8.47;100.00;103452.69;5160977;28;20041;-49
2023/12/16 08:31:37;;;;;;;5.68;1.45;;;8.50;99.90;;;8.52;100.00;103468.69;5173266;28;20046;-50
2023/12/16 08:34:11;;;;;;;2.95;1.17;;;8.50;99.90;;;8.54;100.00;103469.72;5170573;28;20332;-51
2023/12/16 08:36:44;;;;;;;4.28;1.83;;;8.60;99.90;;;8.58;100.00;103466.63;5161399;28;20053;-54
2023/12/16 08:39:16;;;;;;;4.53;1.38;;;8.60;99.90;;;8.63;100.00;103475.72;5155179;28;20054;-50
2023/12/16 08:41:49;;;;;;;7.28;1.80;;;8.70;99.90;;;8.97;100.00;103480.38;5178138;28;20404;-50
2023/12/16 08:44:21;;;;;;;3.00;1.35;;;9.00;99.90;;;9.05;100.00;103472.31;5161303;28;20141;-51
2023/12/16 08:46:55;;;;;;;4.68;1.60;;;9.10;99.90;;;9.14;100.00;103478.28;5172216;28;20525;-51
2023/12/16 08:49:32;;;;;;;3.55;1.52;;;9.20;99.90;;;9.18;100.00;103483.84;5185739;28;20060;-52
2023/12/16 08:52:06;;;;;;;4.65;1.40;;;9.30;99.90;;;9.16;100.00;103484.53;5168699;28;20501;-51
2023/12/16 08:54:41;;;;;;;4.47;1.50;;;9.20;99.90;;;9.13;100.00;103495.59;5151331;28;20116;-49
2023/12/16 08:57:13;;;;;;;3.17;1.42;;;9.20;99.90;;;9.10;100.00;103497.94;5159396;28;20141;-50
2023/12/16 08:59:46;;;;;;;2.33;1.13;;;9.20;99.90;;;9.09;100.00;103503.00;5160092;28;20060;-52
2023/12/16 09:02:20;;;;;;;3.75;1.35;;;9.10;99.90;;;9.09;100.00;103510.81;5159940;28;20410;-51
2023/12/16 09:04:52;;;;;;;5.85;2.05;;;9.10;99.90;;;9.09;100.00;103511.72;5160435;28;20046;-54
2023/12/16 09:07:24;;;;;;;3.65;1.23;;;9.10;99.90;;;9.13;100.00;103520.72;5161439;28;20046;-51
2023/12/16 09:09:57;;;;;;;4.03;1.70;;;9.10;99.90;;;9.15;100.00;103519.16;5178643;28;20058;-50
2023/12/16 09:12:29;;;;;;;5.70;1.95;;;9.20;99.90;;;9.16;100.00;103529.69;5186054;28;20057;-50
2023/12/16 09:15:02;;;;;;;5.38;1.50;;;9.20;99.90;;;9.20;100.00;103520.44;5161286;28;20056;-50
2023/12/16 09:17:39;;;;;;;5.75;1.65;;;9.20;99.90;;;9.27;100.00;103517.56;5103855;28;20049;-49
2023/12/16 09:20:12;;;;;;;5.60;1.75;;;9.20;99.90;;;9.33;100.00;103522.38;5139244;28;20058;-51
2023/12/16 09:22:45;;;;;;;5.50;1.30;;;9.30;99.90;;;9.37;100.00;103521.81;5184288;28;20467;-50
2023/12/16 09:25:20;;;;;;;4.82;1.83;;;9.30;99.90;;;9.43;100.00;103519.75;5185092;28;20128;-51
2023/12/16 09:27:52;;;;;;;6.38;1.70;;;9.40;99.90;;;9.52;100.00;103525.72;5202774;28;20053;-52
2023/12/16 09:30:25;;;;;;;3.95;1.55;;;9.50;99.90;;;9.61;100.00;103538.56;5202883;28;20050;-53
2023/12/16 09:32:59;;;;;;;7.03;1.80;;;9.60;99.90;;;9.61;100.00;103543.78;5202768;28;20065;-52
2023/12/16 09:35:34;;;;;;;6.55;1.70;;;9.60;99.90;;;9.60;100.00;103544.56;5204084;28;20057;-51
2023/12/16 09:38:06;;;;;;;6.13;1.60;;;9.60;99.90;;;9.61;100.00;103549.91;5183758;28;20049;-50
2023/12/16 09:40:41;;;;;;;5.20;1.60;;;9.60;99.90;;;9.68;100.00;103557.44;5201503;28;20050;-51
2023/12/16 09:43:17;;;;;;;6.20;1.55;;;9.60;99.90;;;9.78;100.00;103556.50;5199847;28;20053;-54
2023/12/16 09:45:50;;;;;;;4.05;1.23;;;9.70;99.90;;;9.93;100.00;103552.53;5203615;28;20044;-54
2023/12/16 09:48:24;;;;;;;4.10;1.48;;;9.90;99.90;;;10.05;100.00;103552.63;5218628;28;20053;-49
2023/12/16 09:50:57;;;;;;;3.90;1.33;;;10.00;99.90;;;10.14;100.00;103555.06;5201817;28;20041;-50
2023/12/16 09:53:32;;;;;;;2.38;1.13;;;10.00;99.90;;;10.19;100.00;103556.34;5189034;28;20045;-50
2023/12/16 09:56:05;;;;;;;5.30;1.55;;;10.10;99.90;;;10.20;100.00;103552.94;5184204;28;20513;-49
2023/12/16 09:58:43;;;;;;;3.92;1.60;;;10.10;99.90;;;10.26;100.00;103556.97;5186646;28;20054;-49
2023/12/16 10:01:17;;;;;;;5.45;1.48;;;10.20;99.90;;;10.36;100.00;103561.22;5202804;28;20050;-50
2023/12/16 10:03:53;;;;;;;6.35;1.80;;;10.30;99.90;;;10.29;100.00;103554.59;5214391;28;20504;-52
2023/12/16 10:06:25;;;;;;;4.93;1.48;;;10.30;99.90;;;10.29;100.00;103548.47;5209367;28;20408;-52
2023/12/16 10:08:58;;;;;;;5.38;1.40;;;10.30;99.90;;;10.28;100.00;103544.97;5185278;28;20049;-50
2023/12/16 10:11:30;;;;;;;10.23;1.70;;;10.30;99.90;;;10.29;100.00;103540.66;5182959;28;20049;-50
2023/12/16 10:14:03;;;;;;;5.50;1.60;;;10.30;99.90;;;10.25;100.00;103536.91;5176534;28;20538;-53
2023/12/16 10:16:36;;;;;;;4.28;1.50;;;10.30;99.90;;;10.24;100.00;103539.41;5193964;28;20061;-50
2023/12/16 10:19:10;;;;;;;2.30;1.42;;;10.20;99.90;;;10.23;100.00;103540.16;5201106;28;20041;-50
2023/12/16 10:21:42;;;;;;;5.93;1.25;;;10.20;99.90;;;10.18;100.00;103536.28;5200414;28;20061;-50
2023/12/16 10:24:15;;;;;;;3.95;1.55;;;10.20;99.90;;;10.15;100.00;103528.19;5180648;28;20057;-49
2023/12/16 10:26:48;;;;;;;4.35;1.30;;;10.10;99.90;;;10.12;100.00;103525.34;5183472;28;20483;-52
2023/12/16 10:29:20;;;;;;;3.25;1.25;;;10.10;99.90;;;10.07;100.00;103531.09;5198345;28;20045;-50
2023/12/16 10:31:52;;;;;;;6.10;1.20;;;10.10;99.90;;;10.05;100.00;103537.00;5198113;28;20123;-54
2023/12/16 10:34:29;;;;;;;3.45;1.40;;;10.10;99.90;;;10.04;100.00;103537.75;5196925;28;20088;-49
2023/12/16 10:37:06;;;;;;;3.97;1.30;;;10.00;99.90;;;10.00;100.00;103536.59;5199195;28;20099;-54
2023/12/16 10:39:42;;;;;;;5.60;1.33;;;10.00;99.90;;;10.00;100.00;103536.59;5210922;28;20143;-50
2023/12/16 10:42:14;;;;;;;6.32;1.27;;;10.00;99.90;;;10.02;100.00;103528.91;5183447;28;20144;-50